The Vly, New York
Current Conditions -  °F | °C
As of 1:53 AM on Tuesday 21 Oct 2014 (Local Time) from KPOU Reporting Station
Broken Clouds Broken Clouds  
Wind Chill: 48°   Ceiling: 12000
Heat Index: 48°   Visibility: 10mi
Dew Point: 42°   Wind: 3mph
Humidity: 80%   Direction: 120°ESE
Pressure: 29.92"   Gusts: NA
Location:  41.8715°N, 74.1782°W
Report Text: KPOU 210553Z AUTO 12003KT 10SM BKN120 09/06 A2992 RMK AO2 SLP130 T00890056 10111 20089 58015 TSNO
Loading
Personal Weather Stations






























Interactive Weather Map New forecast layout! Learn more

10-Day Weather Forecast

Advertisements
Track Severe Weather on mobile